createdAt,value
2019-03-03T00:00:10.914Z,3.00
2019-03-03T00:01:10.909Z,2.30
2019-03-03T00:02:10.891Z,3.40
2019-03-03T00:03:10.900Z,3.40
2019-03-03T00:04:10.874Z,3.10
2019-03-03T00:05:10.859Z,3.60
2019-03-03T00:06:10.850Z,5.10
2019-03-03T00:07:10.840Z,6.90
2019-03-03T00:08:10.839Z,6.80
2019-03-03T00:09:10.814Z,7.00
2019-03-03T00:10:10.808Z,6.10
2019-03-03T00:11:10.790Z,5.60
2019-03-03T00:12:10.780Z,3.10
2019-03-03T00:13:10.796Z,6.60
2019-03-03T00:14:10.757Z,5.70
2019-03-03T00:15:10.745Z,5.40
2019-03-03T00:16:10.735Z,4.20
2019-03-03T00:17:10.724Z,5.80
2019-03-03T00:18:10.728Z,6.30
2019-03-03T00:19:10.707Z,2.60
2019-03-03T00:20:10.688Z,3.70
2019-03-03T00:21:10.678Z,3.00
2019-03-03T00:22:10.669Z,2.80
2019-03-03T00:23:10.672Z,3.80
2019-03-03T00:24:10.646Z,4.40
2019-03-03T00:25:10.643Z,2.80
2019-03-03T00:26:10.622Z,3.20
2019-03-03T00:27:10.614Z,2.50
2019-03-03T00:28:10.644Z,5.10
2019-03-03T00:29:10.590Z,5.00
2019-03-03T00:30:10.578Z,4.30
2019-03-03T00:31:10.574Z,3.30
2019-03-03T00:32:10.563Z,3.90
2019-03-03T00:33:10.546Z,2.80
2019-03-03T00:34:10.549Z,4.40
2019-03-03T00:35:10.522Z,6.40
2019-03-03T00:36:10.521Z,4.00
2019-03-03T00:37:10.508Z,5.10
2019-03-03T00:38:10.493Z,4.10
2019-03-03T00:39:10.493Z,2.80
2019-03-03T00:40:10.467Z,5.00
2019-03-03T00:41:10.457Z,5.40
2019-03-03T00:42:10.447Z,6.60
2019-03-03T00:43:10.445Z,2.60
2019-03-03T00:44:10.438Z,4.70
2019-03-03T00:45:10.410Z,1.80
2019-03-03T00:46:10.402Z,2.50
2019-03-03T00:47:10.389Z,3.00
2019-03-03T00:48:10.378Z,2.70
2019-03-03T00:49:10.398Z,3.00
2019-03-03T00:50:10.357Z,2.30
2019-03-03T00:51:10.358Z,2.40
2019-03-03T00:52:10.334Z,2.70
2019-03-03T00:53:10.323Z,2.00
2019-03-03T00:54:10.328Z,3.00
2019-03-03T00:55:10.306Z,2.60
2019-03-03T00:56:10.289Z,3.90
2019-03-03T00:57:10.277Z,3.40
2019-03-03T00:58:10.266Z,3.40
2019-03-03T00:59:10.270Z,3.00
2019-03-03T01:00:10.244Z,1.80
2019-03-03T01:01:10.243Z,2.30
2019-03-03T01:02:10.222Z,3.70
2019-03-03T01:03:10.210Z,5.90
2019-03-03T01:04:10.234Z,2.60
2019-03-03T01:05:10.188Z,3.70
2019-03-03T01:06:10.177Z,3.40
2019-03-03T01:07:10.171Z,1.80
2019-03-03T01:08:10.156Z,2.50
2019-03-03T01:09:10.147Z,3.20
2019-03-03T01:10:10.151Z,3.80
2019-03-03T01:11:10.120Z,2.20
2019-03-03T01:12:10.110Z,2.70
2019-03-03T01:13:10.109Z,3.30
2019-03-03T01:14:10.096Z,3.80
2019-03-03T01:15:10.092Z,2.90
2019-03-03T01:16:10.066Z,3.00
2019-03-03T01:17:10.054Z,2.70
2019-03-03T01:18:10.052Z,2.40
2019-03-03T01:19:10.043Z,4.50
2019-03-03T01:20:10.035Z,3.00
2019-03-03T01:21:10.009Z,3.70
2019-03-03T01:22:10.002Z,3.20
2019-03-03T01:23:09.987Z,2.70
2019-03-03T01:24:09.980Z,2.90
2019-03-03T01:25:09.991Z,3.70
2019-03-03T01:26:09.952Z,3.30
2019-03-03T01:27:09.942Z,2.50
2019-03-03T01:28:09.931Z,2.20
2019-03-03T01:29:09.920Z,2.40
2019-03-03T01:30:09.924Z,4.70
2019-03-03T01:31:09.906Z,3.40
2019-03-03T01:32:09.887Z,2.90
2019-03-03T01:33:09.877Z,2.00
2019-03-03T01:34:09.863Z,2.10
2019-03-03T01:35:09.868Z,2.60
2019-03-03T01:36:09.842Z,2.40
2019-03-03T01:37:09.841Z,2.60
2019-03-03T01:38:09.819Z,1.70
2019-03-03T01:39:09.808Z,1.90
2019-03-03T01:40:09.814Z,2.50
2019-03-03T01:41:09.786Z,2.70
2019-03-03T01:42:09.775Z,1.70
2019-03-03T01:43:09.773Z,1.50
2019-03-03T01:44:09.752Z,2.60
2019-03-03T01:45:09.755Z,3.10
2019-03-03T01:46:09.729Z,1.90
2019-03-03T01:47:09.722Z,1.40
2019-03-03T01:48:09.706Z,3.10
2019-03-03T01:49:09.716Z,2.50
2019-03-03T01:50:09.702Z,1.50
2019-03-03T01:51:09.791Z,1.90
2019-03-03T01:52:09.662Z,1.50
2019-03-03T01:53:09.651Z,1.50
2019-03-03T01:54:09.640Z,2.10
2019-03-03T01:55:09.648Z,1.90
2019-03-03T01:56:09.624Z,2.60
2019-03-03T01:57:09.606Z,3.70
2019-03-03T01:58:09.595Z,1.50
2019-03-03T01:59:09.584Z,1.40
2019-03-03T02:00:09.591Z,2.40
2019-03-03T02:01:09.563Z,1.60
2019-03-03T02:02:09.563Z,2.70
2019-03-03T02:03:09.539Z,1.70
2019-03-03T02:04:09.529Z,1.60
2019-03-03T02:05:09.533Z,2.10
2019-03-03T02:06:09.506Z,2.40
2019-03-03T02:07:09.497Z,2.40
2019-03-03T02:08:09.495Z,2.70
2019-03-03T02:09:09.473Z,4.30
2019-03-03T02:10:09.484Z,2.40
2019-03-03T02:11:09.451Z,1.80
2019-03-03T02:12:09.445Z,2.10
2019-03-03T02:13:09.427Z,1.90
2019-03-03T02:14:09.425Z,2.60
2019-03-03T02:15:09.420Z,3.10
2019-03-03T02:16:09.395Z,1.20
2019-03-03T02:17:09.384Z,1.80
2019-03-03T02:18:09.376Z,2.40
2019-03-03T02:19:09.361Z,2.10
2019-03-03T02:20:09.401Z,2.00
2019-03-03T02:21:09.354Z,1.50
2019-03-03T02:22:09.341Z,2.80
2019-03-03T02:23:09.316Z,1.50
2019-03-03T02:24:09.305Z,1.80
2019-03-03T02:25:09.304Z,1.90
2019-03-03T02:26:09.310Z,1.30
2019-03-03T02:27:09.272Z,2.00
2019-03-03T02:28:09.261Z,1.20
2019-03-03T02:29:09.255Z,2.50
2019-03-03T02:30:09.240Z,1.60
2019-03-03T02:31:09.245Z,1.70
2019-03-03T02:32:09.224Z,2.10
2019-03-03T02:33:09.209Z,2.30
2019-03-03T02:34:09.199Z,1.70
2019-03-03T02:35:09.182Z,2.50
2019-03-03T02:36:09.189Z,1.60
2019-03-03T02:37:09.163Z,1.80
2019-03-03T02:38:09.159Z,1.30
2019-03-03T02:39:09.138Z,2.10
2019-03-03T02:40:09.130Z,2.70
2019-03-03T02:41:09.131Z,1.70
2019-03-03T02:42:09.106Z,1.20
2019-03-03T02:43:09.095Z,1.70
2019-03-03T02:44:09.105Z,1.20
2019-03-03T02:45:09.094Z,1.50
2019-03-03T02:46:09.080Z,1.40
2019-03-03T02:47:09.052Z,1.60
2019-03-03T02:48:09.038Z,1.30
2019-03-03T02:49:09.027Z,1.30
2019-03-03T02:50:09.022Z,2.60
2019-03-03T02:51:09.022Z,1.30
2019-03-03T02:52:08.999Z,3.20
2019-03-03T02:53:09.027Z,7.90
2019-03-03T02:54:08.973Z,1.30
2019-03-03T02:55:08.960Z,1.80
2019-03-03T02:56:08.981Z,1.20
2019-03-03T02:57:08.941Z,2.10
2019-03-03T02:58:08.926Z,1.90
2019-03-03T02:59:08.915Z,1.70
2019-03-03T03:00:08.923Z,1.30
2019-03-03T03:01:08.914Z,2.00
2019-03-03T03:02:08.891Z,1.50
2019-03-03T03:03:08.871Z,1.40
2019-03-03T03:04:08.861Z,2.80
2019-03-03T03:05:08.849Z,3.30
2019-03-03T03:06:08.882Z,1.50
2019-03-03T03:07:08.826Z,2.80
2019-03-03T03:08:08.826Z,2.10
2019-03-03T03:09:08.810Z,1.00
2019-03-03T03:10:08.795Z,1.70
2019-03-03T03:11:08.782Z,1.60
2019-03-03T03:12:08.787Z,2.50
2019-03-03T03:13:08.759Z,0.80
2019-03-03T03:14:08.760Z,1.40
2019-03-03T03:15:08.736Z,1.50
2019-03-03T03:16:08.725Z,1.50
2019-03-03T03:17:08.735Z,1.20
2019-03-03T03:18:08.703Z,2.00
2019-03-03T03:19:08.698Z,1.50
2019-03-03T03:20:08.687Z,2.70
2019-03-03T03:21:08.677Z,1.40
2019-03-03T03:22:08.675Z,2.40
2019-03-03T03:23:08.648Z,1.00
2019-03-03T03:24:08.635Z,1.40
2019-03-03T03:25:08.627Z,1.50
2019-03-03T03:26:08.622Z,1.70
2019-03-03T03:27:08.619Z,1.40
2019-03-03T03:28:08.591Z,1.70
2019-03-03T03:29:08.587Z,1.20
2019-03-03T03:30:08.568Z,2.10
2019-03-03T03:31:08.561Z,2.80
2019-03-03T03:32:08.610Z,1.20
2019-03-03T03:33:08.536Z,2.10
2019-03-03T03:34:08.524Z,1.00
2019-03-03T03:35:08.516Z,1.50
2019-03-03T03:36:08.505Z,1.90
2019-03-03T03:37:08.514Z,1.80
2019-03-03T03:38:08.490Z,2.70
2019-03-03T03:39:08.472Z,1.20
2019-03-03T03:40:08.459Z,1.20
2019-03-03T03:41:08.447Z,1.20
2019-03-03T03:42:08.466Z,2.20
2019-03-03T03:43:08.428Z,2.40
2019-03-03T03:44:08.425Z,1.20
2019-03-03T03:45:08.403Z,1.00
2019-03-03T03:46:08.392Z,2.20
2019-03-03T03:47:08.398Z,0.90
2019-03-03T03:48:08.369Z,1.10
2019-03-03T03:49:08.365Z,1.50
2019-03-03T03:50:08.353Z,1.20
2019-03-03T03:51:08.346Z,1.40
2019-03-03T03:52:08.339Z,2.10
2019-03-03T03:53:08.314Z,1.20
2019-03-03T03:54:08.305Z,0.90
2019-03-03T03:55:08.291Z,2.10
2019-03-03T03:56:08.291Z,1.70
2019-03-03T03:57:08.301Z,0.90
2019-03-03T03:58:08.256Z,1.50
2019-03-03T03:59:08.245Z,1.20
2019-03-03T04:00:08.237Z,1.30
2019-03-03T04:01:08.223Z,1.00
2019-03-03T04:02:08.230Z,1.50
2019-03-03T04:03:08.215Z,1.10
2019-03-03T04:04:08.189Z,1.00
2019-03-03T04:05:08.178Z,1.40
2019-03-03T04:06:08.166Z,1.20
2019-03-03T04:07:08.154Z,1.70
2019-03-03T04:08:08.172Z,1.60
2019-03-03T04:09:08.137Z,1.10
2019-03-03T04:10:08.122Z,1.50
2019-03-03T04:11:08.117Z,1.10
2019-03-03T04:12:08.099Z,1.80
2019-03-03T04:13:08.109Z,1.50
2019-03-03T04:14:08.084Z,1.20
2019-03-03T04:15:08.066Z,1.30
2019-03-03T04:16:08.054Z,1.30
2019-03-03T04:17:08.052Z,1.10
2019-03-03T04:18:08.050Z,1.30
2019-03-03T04:19:08.020Z,1.30
2019-03-03T04:20:08.020Z,1.00
2019-03-03T04:21:08.002Z,0.70
2019-03-03T04:22:07.986Z,2.50
2019-03-03T04:23:07.993Z,2.60
2019-03-03T04:24:07.965Z,0.80
2019-03-03T04:25:07.954Z,1.80
2019-03-03T04:26:07.951Z,0.90
2019-03-03T04:27:07.931Z,1.60
2019-03-03T04:28:07.935Z,1.20
2019-03-03T04:29:07.909Z,0.80
2019-03-03T04:30:07.898Z,3.00
2019-03-03T04:31:07.886Z,1.80
2019-03-03T04:32:07.887Z,2.50
2019-03-03T04:33:07.892Z,1.50
2019-03-03T04:34:07.852Z,1.30
2019-03-03T04:35:07.842Z,0.80
2019-03-03T04:36:07.834Z,1.60
2019-03-03T04:37:07.825Z,1.50
2019-03-03T04:38:07.832Z,1.70
2019-03-03T04:39:07.798Z,3.30
2019-03-03T04:40:07.786Z,1.20
2019-03-03T04:41:07.775Z,1.30
2019-03-03T04:42:07.764Z,1.20
2019-03-03T04:43:07.769Z,1.60
2019-03-03T04:44:07.756Z,2.10
2019-03-03T04:45:07.736Z,1.80
2019-03-03T04:46:07.724Z,1.90
2019-03-03T04:47:07.709Z,1.10
2019-03-03T04:48:07.713Z,1.20
2019-03-03T04:49:07.692Z,1.20
2019-03-03T04:50:07.728Z,5.20
2019-03-03T04:51:07.662Z,2.50
2019-03-03T04:52:07.651Z,1.60
2019-03-03T04:53:07.658Z,1.90
2019-03-03T04:54:07.629Z,1.50
2019-03-03T04:55:07.619Z,3.50
2019-03-03T04:56:07.617Z,1.20
2019-03-03T04:57:07.601Z,2.30
2019-03-03T04:58:07.606Z,1.50
2019-03-03T04:59:07.573Z,1.70
2019-03-03T05:00:07.563Z,0.90
2019-03-03T05:01:07.553Z,1.80
2019-03-03T05:02:07.555Z,1.60
2019-03-03T05:03:07.528Z,1.40
2019-03-03T05:04:07.539Z,1.30
2019-03-03T05:05:07.512Z,2.00
2019-03-03T05:06:07.501Z,1.60
2019-03-03T05:07:07.484Z,1.20
2019-03-03T05:08:07.480Z,1.00
2019-03-03T05:09:07.476Z,1.80
2019-03-03T05:10:07.450Z,1.30
2019-03-03T05:11:07.443Z,1.00
2019-03-03T05:12:07.431Z,1.20
2019-03-03T05:13:07.418Z,2.40
2019-03-03T05:14:07.437Z,1.80
2019-03-03T05:15:07.395Z,1.00
2019-03-03T05:16:07.389Z,1.00
2019-03-03T05:17:08.774Z,1.20
2019-03-03T05:18:07.368Z,1.10
2019-03-03T05:19:07.367Z,3.20
2019-03-03T05:20:07.345Z,1.40
2019-03-03T05:21:07.329Z,1.70
2019-03-03T05:22:07.317Z,1.80
2019-03-03T05:23:07.311Z,1.30
2019-03-03T05:24:07.310Z,1.00
2019-03-03T05:25:07.284Z,1.60
2019-03-03T05:26:07.284Z,1.90
2019-03-03T05:27:07.261Z,0.80
2019-03-03T05:28:07.249Z,2.10
2019-03-03T05:29:07.257Z,1.30
2019-03-03T05:30:07.228Z,1.00
2019-03-03T05:31:07.214Z,1.40
2019-03-03T05:32:07.212Z,1.40
2019-03-03T05:33:07.197Z,1.60
2019-03-03T05:34:07.199Z,1.60
2019-03-03T05:35:07.174Z,3.70
2019-03-03T05:36:07.161Z,1.10
2019-03-03T05:37:07.149Z,1.70
2019-03-03T05:38:07.147Z,1.60
2019-03-03T05:39:07.141Z,1.20
2019-03-03T05:40:07.116Z,1.30
2019-03-03T05:41:07.104Z,1.30
2019-03-03T05:42:07.092Z,2.90
2019-03-03T05:43:07.083Z,1.50
2019-03-03T05:44:07.113Z,0.70
2019-03-03T05:45:07.065Z,4.10
2019-03-03T05:46:07.049Z,1.90
2019-03-03T05:47:07.037Z,2.60
2019-03-03T05:48:07.046Z,1.00
2019-03-03T05:49:07.017Z,2.30
2019-03-03T05:50:07.025Z,1.50
2019-03-03T05:51:06.992Z,0.90
2019-03-03T05:52:06.980Z,1.00
2019-03-03T05:53:06.969Z,1.20
2019-03-03T05:54:06.957Z,1.10
2019-03-03T05:55:06.963Z,0.90
2019-03-03T05:56:06.949Z,1.50
2019-03-03T05:57:06.923Z,1.40
2019-03-03T05:58:06.936Z,0.90
2019-03-03T05:59:06.901Z,0.80
2019-03-03T06:00:06.906Z,2.30
2019-03-03T06:01:06.882Z,2.40
2019-03-03T06:02:06.868Z,1.40
2019-03-03T06:03:06.861Z,1.40
2019-03-03T06:04:06.845Z,1.60
2019-03-03T06:05:06.852Z,0.70
2019-03-03T06:06:06.820Z,1.30
2019-03-03T06:07:06.809Z,1.10
2019-03-03T06:08:06.799Z,1.10
2019-03-03T06:09:06.794Z,1.20
2019-03-03T06:10:06.796Z,2.60
2019-03-03T06:11:06.771Z,2.10
2019-03-03T06:12:06.753Z,1.60
2019-03-03T06:13:06.742Z,1.50
2019-03-03T06:14:06.730Z,1.10
2019-03-03T06:15:06.741Z,0.90
2019-03-03T06:16:06.708Z,1.10
2019-03-03T06:17:06.697Z,1.80
2019-03-03T06:18:06.686Z,1.10
2019-03-03T06:19:06.673Z,0.90
2019-03-03T06:20:06.683Z,1.70
2019-03-03T06:21:06.660Z,2.40
2019-03-03T06:22:06.640Z,0.80
2019-03-03T06:23:06.631Z,1.10
2019-03-03T06:24:06.617Z,1.20
2019-03-03T06:25:06.658Z,1.40
2019-03-03T06:26:06.593Z,2.50
2019-03-03T06:27:06.591Z,2.90
2019-03-03T06:28:06.572Z,0.60
2019-03-03T06:29:06.559Z,2.40
2019-03-03T06:30:06.567Z,3.20
2019-03-03T06:31:06.537Z,1.30
2019-03-03T06:32:06.527Z,2.70
2019-03-03T06:33:06.517Z,1.80
2019-03-03T06:34:06.555Z,1.70
2019-03-03T06:35:06.507Z,1.10
2019-03-03T06:36:06.479Z,0.80
2019-03-03T06:37:06.472Z,3.60
2019-03-03T06:38:06.456Z,1.60
2019-03-03T06:39:06.445Z,1.90
2019-03-03T06:40:06.456Z,1.20
2019-03-03T06:41:06.422Z,2.80
2019-03-03T06:42:06.415Z,1.20
2019-03-03T06:43:06.420Z,1.70
2019-03-03T06:44:06.388Z,1.40
2019-03-03T06:45:06.396Z,2.10
2019-03-03T06:46:06.376Z,4.40
2019-03-03T06:47:06.355Z,1.40
2019-03-03T06:48:06.345Z,1.20
2019-03-03T06:49:06.332Z,2.20
2019-03-03T06:50:06.337Z,3.70
2019-03-03T06:51:06.312Z,2.30
2019-03-03T06:52:06.311Z,1.20
2019-03-03T06:53:06.290Z,3.60
2019-03-03T06:54:06.278Z,1.30
2019-03-03T06:55:06.282Z,1.60
2019-03-03T06:56:06.254Z,1.10
2019-03-03T06:57:06.250Z,2.00
2019-03-03T06:58:06.242Z,2.20
2019-03-03T06:59:06.222Z,4.20
2019-03-03T07:00:06.232Z,4.00
2019-03-03T07:01:06.201Z,1.30
2019-03-03T07:02:06.192Z,4.70
2019-03-03T07:03:06.175Z,3.10
2019-03-03T07:04:06.174Z,1.50
2019-03-03T07:05:06.172Z,3.00
2019-03-03T07:06:06.146Z,3.10
2019-03-03T07:07:06.134Z,1.00
2019-03-03T07:08:06.122Z,2.80
2019-03-03T07:09:06.110Z,1.40
2019-03-03T07:10:06.180Z,1.30
2019-03-03T07:11:06.106Z,1.60
2019-03-03T07:12:06.079Z,1.80
2019-03-03T07:13:06.066Z,0.90
2019-03-03T07:14:06.057Z,2.80
2019-03-03T07:15:06.076Z,1.40
2019-03-03T07:16:06.042Z,2.30
2019-03-03T07:17:06.021Z,2.40
2019-03-03T07:18:06.012Z,1.40
2019-03-03T07:19:05.998Z,2.30
2019-03-03T07:20:05.987Z,1.10
2019-03-03T07:21:05.997Z,1.80
2019-03-03T07:22:06.131Z,2.00
2019-03-03T07:23:05.955Z,2.00
2019-03-03T07:24:05.942Z,2.70
2019-03-03T07:25:05.933Z,1.40
2019-03-03T07:26:05.938Z,1.50
2019-03-03T07:27:05.910Z,2.40
2019-03-03T07:28:05.908Z,2.60
2019-03-03T07:29:05.888Z,1.80
2019-03-03T07:30:05.877Z,0.90
2019-03-03T07:31:05.881Z,2.00
2019-03-03T07:32:05.857Z,1.30
2019-03-03T07:33:05.879Z,2.10
2019-03-03T07:34:05.837Z,1.20
2019-03-03T07:35:05.821Z,1.50
2019-03-03T07:36:05.836Z,1.80
2019-03-03T07:37:05.799Z,2.10
2019-03-03T07:38:05.811Z,1.90
2019-03-03T07:39:05.776Z,1.50
2019-03-03T07:40:05.771Z,1.20
2019-03-03T07:41:05.769Z,2.30
2019-03-03T07:42:05.752Z,1.00
2019-03-03T07:43:05.732Z,1.50
2019-03-03T07:44:05.757Z,1.90
2019-03-03T07:45:05.734Z,1.30
2019-03-03T07:46:05.715Z,2.00
2019-03-03T07:47:05.688Z,1.80
2019-03-03T07:48:05.688Z,1.40
2019-03-03T07:49:05.664Z,2.50
2019-03-03T07:50:05.654Z,1.50
2019-03-03T07:51:05.662Z,3.10
2019-03-03T07:52:05.632Z,1.30
2019-03-03T07:53:05.626Z,3.00
2019-03-03T07:54:05.616Z,5.30
2019-03-03T07:55:05.599Z,1.00
2019-03-03T07:56:05.603Z,1.80
2019-03-03T07:57:05.576Z,1.20
2019-03-03T07:58:05.566Z,1.90
2019-03-03T07:59:05.554Z,2.00
2019-03-03T08:00:05.568Z,3.60
2019-03-03T08:01:05.550Z,2.80
2019-03-03T08:02:05.539Z,1.40
2019-03-03T08:03:05.509Z,0.80
2019-03-03T08:04:05.499Z,0.90
2019-03-03T08:05:05.491Z,1.70
2019-03-03T08:06:05.495Z,2.80
2019-03-03T08:07:05.466Z,1.90
2019-03-03T08:08:06.706Z,3.20
2019-03-03T08:09:05.473Z,2.90
2019-03-03T08:10:05.433Z,1.60
2019-03-03T08:11:07.635Z,1.50
2019-03-03T08:12:05.413Z,1.70
2019-03-03T08:13:09.312Z,1.30
2019-03-03T08:14:05.395Z,1.20
2019-03-03T08:15:05.380Z,1.30
2019-03-03T08:16:05.364Z,5.00
2019-03-03T08:17:05.405Z,2.20
2019-03-03T08:18:05.380Z,1.80
2019-03-03T08:19:05.446Z,2.70
2019-03-03T08:20:05.368Z,2.50
2019-03-03T08:21:05.310Z,2.10
2019-03-03T08:22:05.317Z,3.10
2019-03-03T08:23:05.287Z,4.40
2019-03-03T08:24:05.275Z,2.10
2019-03-03T08:25:05.275Z,2.30
2019-03-03T08:26:05.254Z,7.20
2019-03-03T08:27:05.259Z,5.80
2019-03-03T08:28:05.232Z,7.10
2019-03-03T08:29:05.219Z,5.50
2019-03-03T08:30:05.210Z,7.10
2019-03-03T08:31:05.208Z,8.00
2019-03-03T08:32:05.241Z,10.90
2019-03-03T08:33:05.179Z,9.30
2019-03-03T08:34:05.164Z,8.30
2019-03-03T08:35:05.153Z,7.80
2019-03-03T08:36:05.151Z,7.00
2019-03-03T08:37:05.157Z,2.80
2019-03-03T08:38:05.121Z,3.80
2019-03-03T08:39:05.107Z,5.70
2019-03-03T08:40:05.096Z,5.60
2019-03-03T08:41:05.101Z,4.50
2019-03-03T08:42:05.090Z,5.50
2019-03-03T08:43:05.066Z,5.50
2019-03-03T08:44:05.069Z,3.00
2019-03-03T08:45:05.041Z,3.20
2019-03-03T08:46:05.030Z,4.00
2019-03-03T08:47:05.036Z,3.50
2019-03-03T08:48:05.010Z,4.00
2019-03-03T08:49:04.997Z,4.70
2019-03-03T08:50:04.999Z,2.70
2019-03-03T08:51:04.976Z,3.80
2019-03-03T08:52:04.979Z,5.10
2019-03-03T08:53:04.954Z,2.50
2019-03-03T08:54:04.948Z,4.60
2019-03-03T08:55:04.935Z,2.80
2019-03-03T08:56:04.925Z,2.20
2019-03-03T08:57:04.924Z,2.50
2019-03-03T08:58:04.905Z,4.10
2019-03-03T08:59:04.893Z,2.60
2019-03-03T09:00:04.876Z,2.80
2019-03-03T09:01:04.864Z,2.60
2019-03-03T09:02:04.877Z,4.50
2019-03-03T09:03:04.843Z,3.50
2019-03-03T09:04:04.831Z,3.30
2019-03-03T09:05:04.819Z,3.30
2019-03-03T09:06:04.813Z,2.50
2019-03-03T09:07:04.842Z,1.80
2019-03-03T09:08:04.791Z,2.70
2019-03-03T09:09:04.775Z,2.80
2019-03-03T09:10:04.764Z,3.60
2019-03-03T09:11:04.754Z,4.20
2019-03-03T09:12:04.743Z,3.10
2019-03-03T09:13:04.750Z,3.10
2019-03-03T09:14:04.735Z,2.40
2019-03-03T09:15:04.707Z,2.30
2019-03-03T09:16:04.698Z,1.50
2019-03-03T09:17:04.687Z,2.90
2019-03-03T09:18:04.696Z,3.40
2019-03-03T09:19:04.662Z,2.90
2019-03-03T09:20:04.659Z,4.50
2019-03-03T09:21:04.640Z,4.20
2019-03-03T09:22:04.801Z,3.60
2019-03-03T09:23:04.636Z,4.00
2019-03-03T09:24:04.608Z,2.40
2019-03-03T09:25:04.604Z,3.20
2019-03-03T09:26:04.586Z,4.10
2019-03-03T09:27:04.573Z,3.00
2019-03-03T09:28:04.581Z,2.40
2019-03-03T09:29:04.552Z,2.10
2019-03-03T09:30:04.540Z,2.30
2019-03-03T09:31:04.539Z,3.40
2019-03-03T09:32:04.523Z,2.30
2019-03-03T09:33:04.525Z,2.30
2019-03-03T09:34:04.642Z,2.50
2019-03-03T09:35:04.485Z,2.00
2019-03-03T09:36:04.484Z,6.20
2019-03-03T09:37:04.464Z,2.40
2019-03-03T09:38:04.471Z,2.10
2019-03-03T09:39:05.596Z,3.00
2019-03-03T09:40:09.330Z,2.60
2019-03-03T09:41:05.416Z,2.90
2019-03-03T09:42:04.407Z,3.40
2019-03-03T09:43:04.421Z,2.30
2019-03-03T09:44:04.386Z,1.50
2019-03-03T09:45:04.376Z,1.40
2019-03-03T09:46:04.386Z,2.60
2019-03-03T09:47:04.359Z,1.90
2019-03-03T09:48:04.355Z,1.90
2019-03-03T09:49:04.328Z,2.10
2019-03-03T09:50:04.326Z,3.60
2019-03-03T09:51:04.307Z,2.20
2019-03-03T09:52:04.297Z,2.30
2019-03-03T09:53:04.299Z,2.30
2019-03-03T09:54:04.273Z,1.80
2019-03-03T09:55:04.268Z,2.70
2019-03-03T09:56:04.260Z,1.90
2019-03-03T09:57:04.241Z,3.80
2019-03-03T09:58:04.244Z,2.90
2019-03-03T09:59:04.218Z,2.60
2019-03-03T10:00:04.206Z,2.30
2019-03-03T10:01:04.196Z,2.70
2019-03-03T10:02:04.193Z,2.00
2019-03-03T10:03:04.197Z,1.70
2019-03-03T10:04:04.174Z,2.60
2019-03-03T10:05:04.165Z,2.50
2019-03-03T10:06:04.140Z,2.60
2019-03-03T10:07:04.130Z,1.40
2019-03-03T10:08:04.167Z,2.10
2019-03-03T10:09:04.107Z,2.40
2019-03-03T10:10:04.118Z,2.00
2019-03-03T10:11:04.085Z,2.50
2019-03-03T10:12:04.074Z,2.30
2019-03-03T10:13:04.290Z,2.60
2019-03-03T10:14:04.065Z,2.00
2019-03-03T10:15:04.039Z,2.20
2019-03-03T10:16:04.034Z,2.50
2019-03-03T10:17:04.018Z,2.70
2019-03-03T10:18:04.006Z,2.70
2019-03-03T10:19:07.299Z,1.80
2019-03-03T10:20:03.988Z,2.10
2019-03-03T10:21:03.972Z,2.20
2019-03-03T10:22:03.961Z,2.10
2019-03-03T10:23:03.951Z,2.00
2019-03-03T10:24:03.965Z,1.80
2019-03-03T10:25:03.930Z,1.40
2019-03-03T10:26:03.931Z,3.70
2019-03-03T10:27:03.907Z,3.90
2019-03-03T10:28:03.896Z,2.40
2019-03-03T10:29:03.900Z,1.80
2019-03-03T10:30:03.882Z,1.50
2019-03-03T10:31:03.863Z,3.00
2019-03-03T10:32:03.854Z,3.10
2019-03-03T10:33:03.842Z,2.50
2019-03-03T10:34:03.847Z,1.60
2019-03-03T10:35:03.819Z,1.50
2019-03-03T10:36:03.813Z,2.20
2019-03-03T10:37:03.796Z,1.50
2019-03-03T10:38:03.786Z,4.30
2019-03-03T10:39:04.651Z,2.20
2019-03-03T10:40:03.770Z,1.80
2019-03-03T10:41:03.768Z,1.30
2019-03-03T10:42:03.742Z,1.70
2019-03-03T10:43:03.739Z,2.80
2019-03-03T10:44:03.739Z,2.20
2019-03-03T10:45:03.712Z,1.70
2019-03-03T10:46:03.744Z,3.00
2019-03-03T10:47:03.689Z,2.60
2019-03-03T10:48:03.677Z,4.40
2019-03-03T10:49:03.667Z,3.70
2019-03-03T10:50:03.672Z,4.20
2019-03-03T10:51:03.659Z,4.50
2019-03-03T10:52:03.635Z,4.00
2019-03-03T10:53:03.626Z,11.30
2019-03-03T10:54:03.613Z,2.90
2019-03-03T10:55:03.618Z,4.20
2019-03-03T10:56:03.594Z,2.60
2019-03-03T10:57:03.586Z,3.40
2019-03-03T10:58:03.570Z,3.80
2019-03-03T10:59:03.563Z,2.50
2019-03-03T11:00:03.564Z,3.60
2019-03-03T11:01:03.537Z,3.40
2019-03-03T11:02:03.556Z,3.20
2019-03-03T11:03:03.523Z,3.00
2019-03-03T11:04:03.505Z,2.50
2019-03-03T11:05:03.514Z,2.90
2019-03-03T11:06:03.486Z,1.90
2019-03-03T11:07:03.473Z,2.90
2019-03-03T11:08:03.464Z,3.90
2019-03-03T11:09:03.461Z,4.20
2019-03-03T11:10:03.455Z,2.10
2019-03-03T11:11:03.430Z,2.60
2019-03-03T11:12:03.419Z,2.80
2019-03-03T11:13:03.410Z,1.70
2019-03-03T11:14:03.530Z,3.00
2019-03-03T11:15:03.412Z,2.10
2019-03-03T11:16:03.379Z,2.60
2019-03-03T11:17:03.369Z,2.60
2019-03-03T11:18:03.355Z,2.40
2019-03-03T11:19:03.347Z,2.20
2019-03-03T11:20:03.353Z,2.40
2019-03-03T11:21:03.334Z,2.10
2019-03-03T11:22:03.313Z,2.60
2019-03-03T11:23:03.303Z,2.00
2019-03-03T11:24:03.290Z,1.90
2019-03-03T11:25:03.297Z,2.70
2019-03-03T11:26:03.273Z,2.20
2019-03-03T11:27:03.268Z,1.50
2019-03-03T11:28:03.247Z,1.80
2019-03-03T11:29:03.242Z,2.30
2019-03-03T11:30:03.250Z,1.50
2019-03-03T11:31:03.221Z,1.90
2019-03-03T11:32:03.229Z,2.20
2019-03-03T11:33:03.246Z,2.20
2019-03-03T11:34:03.185Z,2.60
2019-03-03T11:35:03.212Z,2.40
2019-03-03T11:36:03.164Z,1.70
2019-03-03T11:37:03.151Z,2.00
2019-03-03T11:38:03.141Z,2.50
2019-03-03T11:39:03.142Z,2.00
2019-03-03T11:40:03.122Z,1.60
2019-03-03T11:41:03.124Z,2.10
2019-03-03T11:42:03.096Z,1.80
2019-03-03T11:43:03.085Z,2.40
2019-03-03T11:44:03.073Z,1.80
2019-03-03T11:45:03.076Z,1.90
2019-03-03T11:46:04.182Z,2.40
2019-03-03T11:47:03.043Z,1.40
2019-03-03T11:48:04.455Z,1.90
2019-03-03T11:49:03.021Z,2.20
2019-03-03T11:50:03.010Z,1.90
2019-03-03T11:51:03.024Z,1.90
2019-03-03T11:52:02.988Z,1.70
2019-03-03T11:53:02.974Z,1.50
2019-03-03T11:54:02.965Z,1.90
2019-03-03T11:55:02.953Z,2.20
2019-03-03T11:56:02.954Z,1.80
2019-03-03T11:57:02.935Z,2.50
2019-03-03T11:58:02.917Z,2.90
2019-03-03T11:59:02.905Z,2.10
2019-03-03T12:00:02.893Z,1.90
2019-03-03T12:01:02.910Z,1.30
2019-03-03T12:02:02.872Z,2.80
2019-03-03T12:03:02.859Z,1.70
2019-03-03T12:04:02.854Z,2.80
2019-03-03T12:05:02.845Z,2.30
2019-03-03T12:06:02.843Z,1.70
2019-03-03T12:07:02.821Z,2.00
2019-03-03T12:08:02.828Z,2.40
2019-03-03T12:09:02.793Z,1.70
2019-03-03T12:10:02.788Z,2.00
2019-03-03T12:11:02.815Z,1.80
2019-03-03T12:12:02.762Z,2.10
2019-03-03T12:13:02.754Z,1.60
2019-03-03T12:14:02.738Z,1.90
2019-03-03T12:15:02.728Z,1.90
2019-03-03T12:16:02.740Z,1.60
2019-03-03T12:17:02.717Z,2.20
2019-03-03T12:18:02.696Z,1.60
2019-03-03T12:19:02.684Z,1.90
2019-03-03T12:20:02.673Z,2.00
2019-03-03T12:21:02.664Z,1.00
2019-03-03T12:22:02.678Z,1.50
2019-03-03T12:23:02.652Z,2.10
2019-03-03T12:24:02.631Z,1.90
2019-03-03T12:25:02.616Z,1.40
2019-03-03T12:26:02.607Z,1.90
2019-03-03T12:27:02.614Z,1.90
2019-03-03T12:28:02.593Z,2.40
2019-03-03T12:29:02.573Z,2.00
2019-03-03T12:30:02.562Z,1.60
2019-03-03T12:31:02.557Z,2.10
2019-03-03T12:32:02.556Z,1.20
2019-03-03T12:33:02.529Z,1.40
2019-03-03T12:34:02.529Z,1.60
2019-03-03T12:35:02.509Z,1.60
2019-03-03T12:36:02.497Z,1.90
2019-03-03T12:37:02.504Z,2.10
2019-03-03T12:38:02.475Z,1.60
2019-03-03T12:39:02.466Z,1.90
2019-03-03T12:40:02.469Z,1.60
2019-03-03T12:41:02.445Z,1.60
2019-03-03T12:42:03.688Z,1.60
2019-03-03T12:43:02.421Z,1.70
2019-03-03T12:44:02.411Z,1.90
2019-03-03T12:45:02.402Z,1.40
2019-03-03T12:46:02.395Z,1.50
2019-03-03T12:47:02.395Z,2.20
2019-03-03T12:48:02.367Z,1.40
2019-03-03T12:49:02.355Z,1.20
2019-03-03T12:50:02.345Z,2.10
2019-03-03T12:51:02.336Z,1.00
2019-03-03T12:52:02.346Z,3.10
2019-03-03T12:53:02.312Z,1.30
2019-03-03T12:54:02.299Z,2.50
2019-03-03T12:55:02.293Z,1.60
2019-03-03T12:56:02.276Z,2.70
2019-03-03T12:57:02.278Z,2.20
2019-03-03T12:58:02.260Z,3.10
2019-03-03T12:59:02.249Z,1.60
2019-03-03T13:00:02.233Z,1.60
2019-03-03T13:01:02.238Z,1.30
2019-03-03T13:02:02.237Z,2.20
2019-03-03T13:03:02.199Z,2.40
2019-03-03T13:04:02.189Z,1.50
2019-03-03T13:05:02.180Z,1.90
2019-03-03T13:06:02.168Z,2.80
2019-03-03T13:07:02.197Z,2.70
2019-03-03T13:08:02.145Z,2.00
2019-03-03T13:09:02.136Z,1.80
2019-03-03T13:10:02.122Z,2.70
2019-03-03T13:11:02.119Z,1.90
2019-03-03T13:12:04.976Z,3.30
2019-03-03T13:13:03.003Z,4.00
2019-03-03T13:14:02.280Z,1.30
2019-03-03T13:15:03.106Z,2.50
2019-03-03T13:16:02.056Z,2.60
2019-03-03T13:17:02.046Z,2.20
2019-03-03T13:18:02.058Z,1.90